sensor_id;sensor_type;location;lat;lon;timestamp;P1;durP1;ratioP1;P2;durP2;ratioP2
13250;SDS011;6692;50.710;7.180;2023-04-06T00:01:19;7.83;;;6.70;;
13250;SDS011;6692;50.710;7.180;2023-04-06T00:03:19;8.47;;;5.73;;
13250;SDS011;6692;50.710;7.180;2023-04-06T00:05:20;7.97;;;7.17;;
13250;SDS011;6692;50.710;7.180;2023-04-06T00:07:21;8.50;;;6.43;;
13250;SDS011;6692;50.710;7.180;2023-04-06T00:09:21;7.10;;;6.00;;
13250;SDS011;6692;50.710;7.180;2023-04-06T00:11:22;7.80;;;6.97;;
13250;SDS011;6692;50.710;7.180;2023-04-06T00:13:23;7.47;;;6.30;;
13250;SDS011;6692;50.710;7.180;2023-04-06T00:15:23;7.33;;;6.37;;
13250;SDS011;6692;50.710;7.180;2023-04-06T00:17:24;7.80;;;7.00;;
13250;SDS011;6692;50.710;7.180;2023-04-06T00:19:25;7.10;;;6.40;;
13250;SDS011;6692;50.710;7.180;2023-04-06T00:21:25;7.60;;;6.73;;
13250;SDS011;6692;50.710;7.180;2023-04-06T00:23:26;7.20;;;6.43;;
13250;SDS011;6692;50.710;7.180;2023-04-06T00:25:27;7.90;;;7.10;;
13250;SDS011;6692;50.710;7.180;2023-04-06T00:27:28;7.37;;;6.63;;
13250;SDS011;6692;50.710;7.180;2023-04-06T00:29:29;7.20;;;6.50;;
13250;SDS011;6692;50.710;7.180;2023-04-06T00:31:30;7.37;;;6.57;;
13250;SDS011;6692;50.710;7.180;2023-04-06T00:33:31;7.83;;;7.03;;
13250;SDS011;6692;50.710;7.180;2023-04-06T00:35:32;7.23;;;6.20;;
13250;SDS011;6692;50.710;7.180;2023-04-06T00:37:32;7.10;;;6.40;;
13250;SDS011;6692;50.710;7.180;2023-04-06T00:39:34;8.03;;;7.23;;
13250;SDS011;6692;50.710;7.180;2023-04-06T00:41:35;7.22;;;6.53;;
13250;SDS011;6692;50.710;7.180;2023-04-06T00:43:36;7.67;;;6.87;;
13250;SDS011;6692;50.710;7.180;2023-04-06T00:45:38;7.80;;;6.87;;
13250;SDS011;6692;50.710;7.180;2023-04-06T00:47:39;8.10;;;7.32;;
13250;SDS011;6692;50.710;7.180;2023-04-06T00:49:40;7.70;;;6.50;;
13250;SDS011;6692;50.710;7.180;2023-04-06T00:51:41;7.10;;;6.30;;
13250;SDS011;6692;50.710;7.180;2023-04-06T00:53:41;7.67;;;6.87;;
13250;SDS011;6692;50.710;7.180;2023-04-06T00:55:42;7.33;;;6.63;;
13250;SDS011;6692;50.710;7.180;2023-04-06T00:57:43;7.37;;;6.63;;
13250;SDS011;6692;50.710;7.180;2023-04-06T00:59:44;7.45;;;6.65;;
13250;SDS011;6692;50.710;7.180;2023-04-06T01:01:45;7.57;;;6.53;;
13250;SDS011;6692;50.710;7.180;2023-04-06T01:03:46;7.50;;;6.80;;
13250;SDS011;6692;50.710;7.180;2023-04-06T01:05:47;6.87;;;6.18;;
13250;SDS011;6692;50.710;7.180;2023-04-06T01:07:48;7.57;;;6.53;;
13250;SDS011;6692;50.710;7.180;2023-04-06T01:09:48;7.47;;;6.70;;
13250;SDS011;6692;50.710;7.180;2023-04-06T01:11:50;7.27;;;6.50;;
13250;SDS011;6692;50.710;7.180;2023-04-06T01:13:50;7.95;;;6.87;;
13250;SDS011;6692;50.710;7.180;2023-04-06T01:15:51;7.70;;;6.47;;
13250;SDS011;6692;50.710;7.180;2023-04-06T01:17:52;8.60;;;7.00;;
13250;SDS011;6692;50.710;7.180;2023-04-06T01:19:53;6.87;;;6.12;;
13250;SDS011;6692;50.710;7.180;2023-04-06T01:21:54;7.57;;;6.60;;
13250;SDS011;6692;50.710;7.180;2023-04-06T01:23:54;7.83;;;7.03;;
13250;SDS011;6692;50.710;7.180;2023-04-06T01:25:56;7.57;;;6.43;;
13250;SDS011;6692;50.710;7.180;2023-04-06T01:27:57;7.28;;;6.50;;
13250;SDS011;6692;50.710;7.180;2023-04-06T01:29:57;7.50;;;6.43;;
13250;SDS011;6692;50.710;7.180;2023-04-06T01:31:58;7.67;;;6.87;;
13250;SDS011;6692;50.710;7.180;2023-04-06T01:33:59;8.60;;;6.67;;
13250;SDS011;6692;50.710;7.180;2023-04-06T01:35:59;8.30;;;6.70;;
13250;SDS011;6692;50.710;7.180;2023-04-06T01:38:00;7.83;;;7.03;;
13250;SDS011;6692;50.710;7.180;2023-04-06T01:40:02;8.77;;;7.37;;
13250;SDS011;6692;50.710;7.180;2023-04-06T01:42:03;8.18;;;7.32;;
13250;SDS011;6692;50.710;7.180;2023-04-06T01:44:04;8.97;;;7.23;;
13250;SDS011;6692;50.710;7.180;2023-04-06T01:46:05;8.13;;;7.32;;
13250;SDS011;6692;50.710;7.180;2023-04-06T01:48:07;8.90;;;8.00;;
13250;SDS011;6692;50.710;7.180;2023-04-06T01:50:07;9.75;;;8.43;;
13250;SDS011;6692;50.710;7.180;2023-04-06T01:52:08;9.65;;;8.25;;
13250;SDS011;6692;50.710;7.180;2023-04-06T01:54:09;9.10;;;8.10;;
13250;SDS011;6692;50.710;7.180;2023-04-06T01:56:10;8.90;;;7.73;;
13250;SDS011;6692;50.710;7.180;2023-04-06T01:58:10;8.60;;;7.70;;
13250;SDS011;6692;50.710;7.180;2023-04-06T02:00:11;9.83;;;8.07;;
13250;SDS011;6692;50.710;7.180;2023-04-06T02:02:13;10.88;;;8.48;;
13250;SDS011;6692;50.710;7.180;2023-04-06T02:04:15;9.17;;;8.27;;
13250;SDS011;6692;50.710;7.180;2023-04-06T02:06:15;9.00;;;7.93;;
13250;SDS011;6692;50.710;7.180;2023-04-06T02:08:16;9.10;;;8.03;;
13250;SDS011;6692;50.710;7.180;2023-04-06T02:10:17;9.37;;;7.77;;
13250;SDS011;6692;50.710;7.180;2023-04-06T02:12:17;8.80;;;7.90;;
13250;SDS011;6692;50.710;7.180;2023-04-06T02:14:18;8.23;;;7.43;;
13250;SDS011;6692;50.710;7.180;2023-04-06T02:16:19;9.27;;;8.23;;
13250;SDS011;6692;50.710;7.180;2023-04-06T02:18:19;13.13;;;9.20;;
13250;SDS011;6692;50.710;7.180;2023-04-06T02:20:20;9.77;;;8.77;;
13250;SDS011;6692;50.710;7.180;2023-04-06T02:22:21;9.87;;;8.87;;
13250;SDS011;6692;50.710;7.180;2023-04-06T02:24:22;10.23;;;9.13;;
13250;SDS011;6692;50.710;7.180;2023-04-06T02:26:22;9.67;;;8.67;;
13250;SDS011;6692;50.710;7.180;2023-04-06T02:28:23;10.17;;;8.80;;
13250;SDS011;6692;50.710;7.180;2023-04-06T02:30:24;9.10;;;8.20;;
13250;SDS011;6692;50.710;7.180;2023-04-06T02:32:24;10.53;;;8.83;;
13250;SDS011;6692;50.710;7.180;2023-04-06T02:34:25;8.70;;;7.73;;
13250;SDS011;6692;50.710;7.180;2023-04-06T02:36:26;9.53;;;8.53;;
13250;SDS011;6692;50.710;7.180;2023-04-06T02:38:26;9.97;;;8.23;;
13250;SDS011;6692;50.710;7.180;2023-04-06T02:40:27;8.30;;;7.23;;
13250;SDS011;6692;50.710;7.180;2023-04-06T02:42:28;10.13;;;8.53;;
13250;SDS011;6692;50.710;7.180;2023-04-06T02:44:29;9.05;;;8.02;;
13250;SDS011;6692;50.710;7.180;2023-04-06T02:46:34;10.40;;;8.57;;
13250;SDS011;6692;50.710;7.180;2023-04-06T02:48:34;9.53;;;8.43;;
13250;SDS011;6692;50.710;7.180;2023-04-06T02:50:36;9.30;;;8.27;;
13250;SDS011;6692;50.710;7.180;2023-04-06T02:52:37;8.82;;;7.53;;
13250;SDS011;6692;50.710;7.180;2023-04-06T02:54:37;11.63;;;8.73;;
13250;SDS011;6692;50.710;7.180;2023-04-06T02:56:38;11.90;;;9.50;;
13250;SDS011;6692;50.710;7.180;2023-04-06T02:58:39;11.13;;;9.53;;
13250;SDS011;6692;50.710;7.180;2023-04-06T03:00:39;10.90;;;8.93;;
13250;SDS011;6692;50.710;7.180;2023-04-06T03:02:41;10.67;;;8.80;;
13250;SDS011;6692;50.710;7.180;2023-04-06T03:04:42;10.57;;;8.57;;
13250;SDS011;6692;50.710;7.180;2023-04-06T03:06:43;9.93;;;8.73;;
13250;SDS011;6692;50.710;7.180;2023-04-06T03:08:43;9.88;;;8.88;;
13250;SDS011;6692;50.710;7.180;2023-04-06T03:10:44;10.43;;;8.87;;
13250;SDS011;6692;50.710;7.180;2023-04-06T03:12:45;11.97;;;9.30;;
13250;SDS011;6692;50.710;7.180;2023-04-06T03:14:47;10.43;;;8.97;;
13250;SDS011;6692;50.710;7.180;2023-04-06T03:16:48;12.02;;;9.45;;
13250;SDS011;6692;50.710;7.180;2023-04-06T03:18:48;11.67;;;10.07;;
13250;SDS011;6692;50.710;7.180;2023-04-06T03:20:49;10.73;;;9.63;;
13250;SDS011;6692;50.710;7.180;2023-04-06T03:22:49;11.67;;;10.40;;
13250;SDS011;6692;50.710;7.180;2023-04-06T03:24:51;15.40;;;11.60;;
13250;SDS011;6692;50.710;7.180;2023-04-06T03:26:51;11.88;;;10.55;;
13250;SDS011;6692;50.710;7.180;2023-04-06T03:28:53;11.40;;;9.90;;
13250;SDS011;6692;50.710;7.180;2023-04-06T03:30:54;13.32;;;10.50;;
13250;SDS011;6692;50.710;7.180;2023-04-06T03:32:54;11.57;;;9.83;;
13250;SDS011;6692;50.710;7.180;2023-04-06T03:34:55;13.47;;;10.27;;
13250;SDS011;6692;50.710;7.180;2023-04-06T03:36:56;13.83;;;10.93;;
13250;SDS011;6692;50.710;7.180;2023-04-06T03:38:57;10.80;;;9.70;;
13250;SDS011;6692;50.710;7.180;2023-04-06T03:40:58;11.67;;;10.27;;
13250;SDS011;6692;50.710;7.180;2023-04-06T03:42:59;12.00;;;9.90;;
13250;SDS011;6692;50.710;7.180;2023-04-06T03:45:00;10.82;;;9.68;;
13250;SDS011;6692;50.710;7.180;2023-04-06T03:47:00;11.87;;;10.23;;
13250;SDS011;6692;50.710;7.180;2023-04-06T03:49:01;11.73;;;9.83;;
13250;SDS011;6692;50.710;7.180;2023-04-06T03:51:03;11.77;;;10.20;;
13250;SDS011;6692;50.710;7.180;2023-04-06T03:53:03;13.10;;;10.38;;
13250;SDS011;6692;50.710;7.180;2023-04-06T03:55:05;12.40;;;10.10;;
13250;SDS011;6692;50.710;7.180;2023-04-06T03:57:07;11.55;;;10.05;;
13250;SDS011;6692;50.710;7.180;2023-04-06T03:59:07;11.43;;;9.73;;
13250;SDS011;6692;50.710;7.180;2023-04-06T04:01:09;11.87;;;10.33;;
13250;SDS011;6692;50.710;7.180;2023-04-06T04:03:09;11.75;;;9.52;;
13250;SDS011;6692;50.710;7.180;2023-04-06T04:05:10;10.93;;;9.57;;
13250;SDS011;6692;50.710;7.180;2023-04-06T04:07:11;12.20;;;9.40;;
13250;SDS011;6692;50.710;7.180;2023-04-06T04:09:11;11.10;;;9.23;;
13250;SDS011;6692;50.710;7.180;2023-04-06T04:11:13;11.10;;;9.63;;
13250;SDS011;6692;50.710;7.180;2023-04-06T04:13:14;12.75;;;9.57;;
13250;SDS011;6692;50.710;7.180;2023-04-06T04:15:14;12.70;;;9.77;;
13250;SDS011;6692;50.710;7.180;2023-04-06T04:17:16;10.03;;;8.70;;
13250;SDS011;6692;50.710;7.180;2023-04-06T04:19:16;10.50;;;9.35;;
13250;SDS011;6692;50.710;7.180;2023-04-06T04:21:17;10.87;;;8.80;;
13250;SDS011;6692;50.710;7.180;2023-04-06T04:23:18;9.33;;;8.37;;
13250;SDS011;6692;50.710;7.180;2023-04-06T04:25:18;10.17;;;8.80;;
13250;SDS011;6692;50.710;7.180;2023-04-06T04:27:19;10.03;;;8.57;;
13250;SDS011;6692;50.710;7.180;2023-04-06T04:29:20;11.07;;;8.90;;
13250;SDS011;6692;50.710;7.180;2023-04-06T04:31:21;9.43;;;8.32;;
13250;SDS011;6692;50.710;7.180;2023-04-06T04:33:22;10.40;;;8.50;;
13250;SDS011;6692;50.710;7.180;2023-04-06T04:35:23;9.23;;;8.23;;
13250;SDS011;6692;50.710;7.180;2023-04-06T04:37:23;10.20;;;8.63;;
13250;SDS011;6692;50.710;7.180;2023-04-06T04:39:24;8.67;;;7.33;;
13250;SDS011;6692;50.710;7.180;2023-04-06T04:41:25;10.23;;;8.60;;
13250;SDS011;6692;50.710;7.180;2023-04-06T04:43:25;9.07;;;8.13;;
13250;SDS011;6692;50.710;7.180;2023-04-06T04:45:26;9.63;;;8.63;;
13250;SDS011;6692;50.710;7.180;2023-04-06T04:47:27;10.20;;;7.97;;
13250;SDS011;6692;50.710;7.180;2023-04-06T04:49:27;9.30;;;8.13;;
13250;SDS011;6692;50.710;7.180;2023-04-06T04:51:28;11.20;;;10.03;;
13250;SDS011;6692;50.710;7.180;2023-04-06T04:53:30;10.70;;;9.20;;
13250;SDS011;6692;50.710;7.180;2023-04-06T04:55:30;10.00;;;8.98;;
13250;SDS011;6692;50.710;7.180;2023-04-06T04:57:31;12.43;;;9.13;;
13250;SDS011;6692;50.710;7.180;2023-04-06T04:59:33;9.60;;;8.50;;
13250;SDS011;6692;50.710;7.180;2023-04-06T05:01:33;10.52;;;9.25;;
13250;SDS011;6692;50.710;7.180;2023-04-06T05:03:34;10.27;;;9.20;;
13250;SDS011;6692;50.710;7.180;2023-04-06T05:05:35;10.70;;;9.20;;
13250;SDS011;6692;50.710;7.180;2023-04-06T05:07:36;11.07;;;8.77;;
13250;SDS011;6692;50.710;7.180;2023-04-06T05:09:36;12.33;;;9.87;;
13250;SDS011;6692;50.710;7.180;2023-04-06T05:11:37;11.53;;;8.73;;
13250;SDS011;6692;50.710;7.180;2023-04-06T05:13:38;9.97;;;8.90;;
13250;SDS011;6692;50.710;7.180;2023-04-06T05:15:40;8.98;;;8.02;;
13250;SDS011;6692;50.710;7.180;2023-04-06T05:17:40;9.50;;;8.27;;
13250;SDS011;6692;50.710;7.180;2023-04-06T05:19:41;10.20;;;9.00;;
13250;SDS011;6692;50.710;7.180;2023-04-06T05:21:42;11.00;;;8.70;;
13250;SDS011;6692;50.710;7.180;2023-04-06T05:23:42;10.17;;;9.17;;
13250;SDS011;6692;50.710;7.180;2023-04-06T05:25:43;10.77;;;9.03;;
13250;SDS011;6692;50.710;7.180;2023-04-06T05:27:44;11.90;;;9.63;;
13250;SDS011;6692;50.710;7.180;2023-04-06T05:29:45;12.13;;;9.57;;
13250;SDS011;6692;50.710;7.180;2023-04-06T05:31:46;10.53;;;9.40;;
13250;SDS011;6692;50.710;7.180;2023-04-06T05:33:47;11.37;;;9.80;;
13250;SDS011;6692;50.710;7.180;2023-04-06T05:35:47;12.30;;;10.70;;
13250;SDS011;6692;50.710;7.180;2023-04-06T05:37:48;12.30;;;10.00;;
13250;SDS011;6692;50.710;7.180;2023-04-06T05:39:49;12.00;;;9.67;;
13250;SDS011;6692;50.710;7.180;2023-04-06T05:41:49;14.93;;;10.00;;
13250;SDS011;6692;50.710;7.180;2023-04-06T05:43:50;15.33;;;12.00;;
13250;SDS011;6692;50.710;7.180;2023-04-06T05:45:51;14.27;;;11.37;;
13250;SDS011;6692;50.710;7.180;2023-04-06T05:47:52;14.73;;;11.20;;
13250;SDS011;6692;50.710;7.180;2023-04-06T05:49:53;14.70;;;11.52;;
13250;SDS011;6692;50.710;7.180;2023-04-06T05:51:54;14.25;;;11.90;;
13250;SDS011;6692;50.710;7.180;2023-04-06T05:53:55;13.97;;;11.33;;
13250;SDS011;6692;50.710;7.180;2023-04-06T05:55:55;15.43;;;11.27;;
13250;SDS011;6692;50.710;7.180;2023-04-06T05:57:56;16.23;;;12.27;;
13250;SDS011;6692;50.710;7.180;2023-04-06T05:59:57;17.27;;;13.93;;
13250;SDS011;6692;50.710;7.180;2023-04-06T06:01:57;19.63;;;15.70;;
13250;SDS011;6692;50.710;7.180;2023-04-06T06:03:59;19.37;;;14.60;;
13250;SDS011;6692;50.710;7.180;2023-04-06T06:06:01;19.93;;;14.60;;
13250;SDS011;6692;50.710;7.180;2023-04-06T06:08:01;17.95;;;13.88;;
13250;SDS011;6692;50.710;7.180;2023-04-06T06:10:02;18.13;;;13.57;;
13250;SDS011;6692;50.710;7.180;2023-04-06T06:12:04;15.05;;;13.18;;
13250;SDS011;6692;50.710;7.180;2023-04-06T06:14:05;17.48;;;13.57;;
13250;SDS011;6692;50.710;7.180;2023-04-06T06:16:05;15.67;;;12.83;;
13250;SDS011;6692;50.710;7.180;2023-04-06T06:18:06;15.67;;;11.73;;
13250;SDS011;6692;50.710;7.180;2023-04-06T06:20:07;15.50;;;12.40;;
13250;SDS011;6692;50.710;7.180;2023-04-06T06:22:09;15.38;;;12.13;;
13250;SDS011;6692;50.710;7.180;2023-04-06T06:24:10;14.38;;;12.45;;
13250;SDS011;6692;50.710;7.180;2023-04-06T06:26:11;14.90;;;12.33;;
13250;SDS011;6692;50.710;7.180;2023-04-06T06:28:12;14.13;;;11.77;;
13250;SDS011;6692;50.710;7.180;2023-04-06T06:30:13;15.27;;;11.85;;
13250;SDS011;6692;50.710;7.180;2023-04-06T06:32:14;13.98;;;11.55;;
13250;SDS011;6692;50.710;7.180;2023-04-06T06:34:14;14.63;;;12.27;;
13250;SDS011;6692;50.710;7.180;2023-04-06T06:36:15;14.87;;;12.27;;
13250;SDS011;6692;50.710;7.180;2023-04-06T06:38:16;12.67;;;11.33;;
13250;SDS011;6692;50.710;7.180;2023-04-06T06:40:16;14.73;;;11.93;;
13250;SDS011;6692;50.710;7.180;2023-04-06T06:42:17;13.10;;;11.47;;
13250;SDS011;6692;50.710;7.180;2023-04-06T06:44:18;13.27;;;11.23;;
13250;SDS011;6692;50.710;7.180;2023-04-06T06:46:20;16.37;;;13.50;;
13250;SDS011;6692;50.710;7.180;2023-04-06T06:48:20;14.20;;;12.63;;
13250;SDS011;6692;50.710;7.180;2023-04-06T06:50:21;13.73;;;11.43;;
13250;SDS011;6692;50.710;7.180;2023-04-06T06:52:21;14.23;;;10.80;;
13250;SDS011;6692;50.710;7.180;2023-04-06T06:54:23;12.40;;;10.40;;
13250;SDS011;6692;50.710;7.180;2023-04-06T06:56:23;12.63;;;11.12;;
13250;SDS011;6692;50.710;7.180;2023-04-06T06:58:24;14.43;;;12.00;;
13250;SDS011;6692;50.710;7.180;2023-04-06T07:00:25;12.40;;;10.87;;
13250;SDS011;6692;50.710;7.180;2023-04-06T07:02:26;13.67;;;10.90;;
13250;SDS011;6692;50.710;7.180;2023-04-06T07:04:27;12.35;;;11.10;;
13250;SDS011;6692;50.710;7.180;2023-04-06T07:06:27;12.53;;;10.73;;
13250;SDS011;6692;50.710;7.180;2023-04-06T07:08:28;12.07;;;10.77;;
13250;SDS011;6692;50.710;7.180;2023-04-06T07:10:29;15.50;;;11.73;;
13250;SDS011;6692;50.710;7.180;2023-04-06T07:12:29;14.93;;;12.23;;
13250;SDS011;6692;50.710;7.180;2023-04-06T07:14:31;12.70;;;11.40;;
13250;SDS011;6692;50.710;7.180;2023-04-06T07:16:32;13.57;;;11.37;;
13250;SDS011;6692;50.710;7.180;2023-04-06T07:18:32;14.63;;;10.90;;
13250;SDS011;6692;50.710;7.180;2023-04-06T07:20:34;12.97;;;11.13;;
13250;SDS011;6692;50.710;7.180;2023-04-06T07:22:34;14.80;;;11.57;;
13250;SDS011;6692;50.710;7.180;2023-04-06T07:24:35;17.93;;;13.73;;
13250;SDS011;6692;50.710;7.180;2023-04-06T07:26:36;16.00;;;13.00;;
13250;SDS011;6692;50.710;7.180;2023-04-06T07:28:37;15.47;;;13.47;;
13250;SDS011;6692;50.710;7.180;2023-04-06T07:30:38;15.10;;;12.73;;
13250;SDS011;6692;50.710;7.180;2023-04-06T07:32:38;14.27;;;12.40;;
13250;SDS011;6692;50.710;7.180;2023-04-06T07:34:40;17.87;;;14.53;;
13250;SDS011;6692;50.710;7.180;2023-04-06T07:36:41;18.37;;;13.73;;
13250;SDS011;6692;50.710;7.180;2023-04-06T07:38:41;17.57;;;13.83;;
13250;SDS011;6692;50.710;7.180;2023-04-06T07:40:43;15.07;;;11.57;;
13250;SDS011;6692;50.710;7.180;2023-04-06T07:42:43;15.47;;;12.30;;
13250;SDS011;6692;50.710;7.180;2023-04-06T07:44:44;17.17;;;13.40;;
13250;SDS011;6692;50.710;7.180;2023-04-06T07:46:46;17.13;;;13.07;;
13250;SDS011;6692;50.710;7.180;2023-04-06T07:48:46;17.37;;;13.00;;
13250;SDS011;6692;50.710;7.180;2023-04-06T07:50:47;15.50;;;12.80;;
13250;SDS011;6692;50.710;7.180;2023-04-06T07:52:47;16.00;;;12.67;;
13250;SDS011;6692;50.710;7.180;2023-04-06T07:54:48;14.40;;;12.23;;
13250;SDS011;6692;50.710;7.180;2023-04-06T07:56:49;15.93;;;12.40;;
13250;SDS011;6692;50.710;7.180;2023-04-06T07:58:49;17.77;;;13.20;;
13250;SDS011;6692;50.710;7.180;2023-04-06T08:00:50;14.83;;;12.10;;
13250;SDS011;6692;50.710;7.180;2023-04-06T08:02:51;17.57;;;13.50;;
13250;SDS011;6692;50.710;7.180;2023-04-06T08:04:52;16.87;;;12.97;;
13250;SDS011;6692;50.710;7.180;2023-04-06T08:06:53;17.07;;;12.73;;
13250;SDS011;6692;50.710;7.180;2023-04-06T08:08:54;17.33;;;13.10;;
13250;SDS011;6692;50.710;7.180;2023-04-06T08:10:56;17.07;;;13.00;;
13250;SDS011;6692;50.710;7.180;2023-04-06T08:12:56;16.57;;;12.73;;
13250;SDS011;6692;50.710;7.180;2023-04-06T08:14:57;16.53;;;13.07;;
13250;SDS011;6692;50.710;7.180;2023-04-06T08:16:59;16.97;;;13.90;;
13250;SDS011;6692;50.710;7.180;2023-04-06T08:18:59;14.03;;;12.57;;
13250;SDS011;6692;50.710;7.180;2023-04-06T08:21:00;16.80;;;13.67;;
13250;SDS011;6692;50.710;7.180;2023-04-06T08:23:01;17.50;;;14.17;;
13250;SDS011;6692;50.710;7.180;2023-04-06T08:25:02;15.97;;;14.20;;
13250;SDS011;6692;50.710;7.180;2023-04-06T08:27:03;15.50;;;13.43;;
13250;SDS011;6692;50.710;7.180;2023-04-06T08:29:04;17.47;;;14.43;;
13250;SDS011;6692;50.710;7.180;2023-04-06T08:31:06;16.03;;;13.37;;
13250;SDS011;6692;50.710;7.180;2023-04-06T08:33:06;14.30;;;12.03;;
13250;SDS011;6692;50.710;7.180;2023-04-06T08:35:07;18.00;;;13.63;;
13250;SDS011;6692;50.710;7.180;2023-04-06T08:37:08;16.23;;;14.50;;
13250;SDS011;6692;50.710;7.180;2023-04-06T08:39:09;17.13;;;15.00;;
13250;SDS011;6692;50.710;7.180;2023-04-06T08:41:10;17.00;;;14.37;;
13250;SDS011;6692;50.710;7.180;2023-04-06T08:43:12;16.77;;;13.20;;
13250;SDS011;6692;50.710;7.180;2023-04-06T08:45:12;15.77;;;12.87;;
13250;SDS011;6692;50.710;7.180;2023-04-06T08:47:12;16.47;;;12.57;;
13250;SDS011;6692;50.710;7.180;2023-04-06T08:49:13;14.33;;;12.50;;
13250;SDS011;6692;50.710;7.180;2023-04-06T08:51:14;19.37;;;13.87;;
13250;SDS011;6692;50.710;7.180;2023-04-06T08:53:15;16.80;;;13.93;;
13250;SDS011;6692;50.710;7.180;2023-04-06T08:55:16;16.17;;;14.27;;
13250;SDS011;6692;50.710;7.180;2023-04-06T08:57:17;17.53;;;14.80;;
13250;SDS011;6692;50.710;7.180;2023-04-06T08:59:17;16.43;;;14.00;;
13250;SDS011;6692;50.710;7.180;2023-04-06T09:01:20;14.70;;;12.53;;
13250;SDS011;6692;50.710;7.180;2023-04-06T09:03:19;18.93;;;13.73;;
13250;SDS011;6692;50.710;7.180;2023-04-06T09:05:19;17.13;;;13.97;;
13250;SDS011;6692;50.710;7.180;2023-04-06T09:07:20;18.20;;;14.33;;
13250;SDS011;6692;50.710;7.180;2023-04-06T09:09:21;16.17;;;13.57;;
13250;SDS011;6692;50.710;7.180;2023-04-06T09:11:21;16.67;;;14.60;;
13250;SDS011;6692;50.710;7.180;2023-04-06T09:13:22;16.57;;;14.87;;
13250;SDS011;6692;50.710;7.180;2023-04-06T09:15:23;17.80;;;15.90;;
13250;SDS011;6692;50.710;7.180;2023-04-06T09:17:25;17.80;;;16.13;;
13250;SDS011;6692;50.710;7.180;2023-04-06T09:19:25;18.47;;;15.47;;
13250;SDS011;6692;50.710;7.180;2023-04-06T09:21:25;18.40;;;16.50;;
13250;SDS011;6692;50.710;7.180;2023-04-06T09:23:26;17.53;;;13.53;;
13250;SDS011;6692;50.710;7.180;2023-04-06T09:25:28;19.77;;;17.83;;
13250;SDS011;6692;50.710;7.180;2023-04-06T09:27:30;17.23;;;15.17;;
13250;SDS011;6692;50.710;7.180;2023-04-06T09:29:30;18.03;;;16.13;;
13250;SDS011;6692;50.710;7.180;2023-04-06T09:31:32;16.37;;;14.63;;
13250;SDS011;6692;50.710;7.180;2023-04-06T09:33:33;18.80;;;15.87;;
13250;SDS011;6692;50.710;7.180;2023-04-06T09:35:33;21.33;;;19.13;;
13250;SDS011;6692;50.710;7.180;2023-04-06T09:37:34;21.40;;;19.27;;
13250;SDS011;6692;50.710;7.180;2023-04-06T09:39:35;22.93;;;20.83;;
13250;SDS011;6692;50.710;7.180;2023-04-06T09:41:35;22.40;;;20.60;;
13250;SDS011;6692;50.710;7.180;2023-04-06T09:43:37;26.47;;;24.43;;
13250;SDS011;6692;50.710;7.180;2023-04-06T09:45:37;24.40;;;22.40;;
13250;SDS011;6692;50.710;7.180;2023-04-06T09:47:39;26.83;;;24.67;;
13250;SDS011;6692;50.710;7.180;2023-04-06T09:49:39;30.07;;;27.73;;
13250;SDS011;6692;50.710;7.180;2023-04-06T09:51:41;28.97;;;26.80;;
13250;SDS011;6692;50.710;7.180;2023-04-06T09:53:42;30.93;;;28.53;;
13250;SDS011;6692;50.710;7.180;2023-04-06T09:55:42;26.23;;;24.07;;
13250;SDS011;6692;50.710;7.180;2023-04-06T09:57:45;35.50;;;32.90;;
13250;SDS011;6692;50.710;7.180;2023-04-06T09:59:50;30.63;;;28.27;;
13250;SDS011;6692;50.710;7.180;2023-04-06T10:01:55;28.40;;;26.30;;
13250;SDS011;6692;50.710;7.180;2023-04-06T10:04:04;36.67;;;34.07;;
13250;SDS011;6692;50.710;7.180;2023-04-06T10:06:10;22.83;;;21.03;;
13250;SDS011;6692;50.710;7.180;2023-04-06T10:08:09;16.93;;;15.20;;
13250;SDS011;6692;50.710;7.180;2023-04-06T10:10:09;21.77;;;19.67;;
13250;SDS011;6692;50.710;7.180;2023-04-06T10:12:10;33.13;;;30.80;;
13250;SDS011;6692;50.710;7.180;2023-04-06T10:14:11;22.07;;;19.97;;
13250;SDS011;6692;50.710;7.180;2023-04-06T10:16:13;22.50;;;20.40;;
13250;SDS011;6692;50.710;7.180;2023-04-06T10:18:14;18.53;;;14.17;;
13250;SDS011;6692;50.710;7.180;2023-04-06T10:20:17;27.73;;;25.30;;
13250;SDS011;6692;50.710;7.180;2023-04-06T10:22:19;16.20;;;14.50;;
13250;SDS011;6692;50.710;7.180;2023-04-06T10:24:19;17.57;;;12.73;;
13250;SDS011;6692;50.710;7.180;2023-04-06T10:26:20;19.13;;;16.73;;
13250;SDS011;6692;50.710;7.180;2023-04-06T10:28:20;22.90;;;20.80;;
13250;SDS011;6692;50.710;7.180;2023-04-06T10:30:21;20.77;;;18.77;;
13250;SDS011;6692;50.710;7.180;2023-04-06T10:32:31;15.17;;;12.17;;
13250;SDS011;6692;50.710;7.180;2023-04-06T10:34:23;18.00;;;15.17;;
13250;SDS011;6692;50.710;7.180;2023-04-06T10:36:25;26.80;;;24.77;;
13250;SDS011;6692;50.710;7.180;2023-04-06T10:40:37;14.07;;;10.17;;
13250;SDS011;6692;50.710;7.180;2023-04-06T10:42:37;16.97;;;11.53;;
13250;SDS011;6692;50.710;7.180;2023-04-06T10:44:41;16.63;;;12.23;;
13250;SDS011;6692;50.710;7.180;2023-04-06T10:46:38;17.30;;;15.53;;
13250;SDS011;6692;50.710;7.180;2023-04-06T10:48:42;18.63;;;16.93;;
13250;SDS011;6692;50.710;7.180;2023-04-06T10:50:43;17.00;;;15.43;;
13250;SDS011;6692;50.710;7.180;2023-04-06T10:52:45;12.70;;;9.63;;
13250;SDS011;6692;50.710;7.180;2023-04-06T10:54:46;14.90;;;9.80;;
13250;SDS011;6692;50.710;7.180;2023-04-06T10:56:47;16.37;;;10.47;;
13250;SDS011;6692;50.710;7.180;2023-04-06T10:58:49;12.33;;;9.33;;
13250;SDS011;6692;50.710;7.180;2023-04-06T11:00:49;14.03;;;9.03;;
13250;SDS011;6692;50.710;7.180;2023-04-06T11:02:49;14.40;;;11.20;;
13250;SDS011;6692;50.710;7.180;2023-04-06T11:04:53;13.07;;;9.93;;
13250;SDS011;6692;50.710;7.180;2023-04-06T11:06:53;13.83;;;10.40;;
13250;SDS011;6692;50.710;7.180;2023-04-06T11:08:54;14.80;;;9.30;;
13250;SDS011;6692;50.710;7.180;2023-04-06T11:13:05;12.13;;;10.33;;
13250;SDS011;6692;50.710;7.180;2023-04-06T11:15:06;12.30;;;10.03;;
13250;SDS011;6692;50.710;7.180;2023-04-06T11:17:07;13.50;;;8.67;;
13250;SDS011;6692;50.710;7.180;2023-04-06T11:19:09;14.37;;;8.80;;
13250;SDS011;6692;50.710;7.180;2023-04-06T11:21:10;12.80;;;8.37;;
13250;SDS011;6692;50.710;7.180;2023-04-06T11:23:10;13.47;;;8.77;;
13250;SDS011;6692;50.710;7.180;2023-04-06T11:25:12;12.93;;;8.60;;
13250;SDS011;6692;50.710;7.180;2023-04-06T11:27:12;14.10;;;8.77;;
13250;SDS011;6692;50.710;7.180;2023-04-06T11:29:14;11.90;;;8.77;;
13250;SDS011;6692;50.710;7.180;2023-04-06T11:31:14;18.43;;;8.60;;
13250;SDS011;6692;50.710;7.180;2023-04-06T11:33:20;13.00;;;8.00;;
13250;SDS011;6692;50.710;7.180;2023-04-06T11:35:21;11.47;;;8.40;;
13250;SDS011;6692;50.710;7.180;2023-04-06T11:37:21;12.07;;;8.47;;
13250;SDS011;6692;50.710;7.180;2023-04-06T11:39:23;13.37;;;9.07;;
13250;SDS011;6692;50.710;7.180;2023-04-06T11:41:24;15.97;;;9.03;;
13250;SDS011;6692;50.710;7.180;2023-04-06T11:43:32;15.20;;;9.33;;
13250;SDS011;6692;50.710;7.180;2023-04-06T11:45:40;12.47;;;8.23;;
13250;SDS011;6692;50.710;7.180;2023-04-06T11:47:40;14.33;;;8.60;;
13250;SDS011;6692;50.710;7.180;2023-04-06T11:49:42;15.00;;;9.13;;
13250;SDS011;6692;50.710;7.180;2023-04-06T11:51:42;13.00;;;8.67;;
13250;SDS011;6692;50.710;7.180;2023-04-06T11:53:44;13.40;;;8.80;;
13250;SDS011;6692;50.710;7.180;2023-04-06T11:55:44;13.23;;;8.93;;
13250;SDS011;6692;50.710;7.180;2023-04-06T11:57:45;12.37;;;9.23;;
13250;SDS011;6692;50.710;7.180;2023-04-06T11:59:46;13.03;;;8.27;;
13250;SDS011;6692;50.710;7.180;2023-04-06T12:01:47;12.87;;;8.53;;
13250;SDS011;6692;50.710;7.180;2023-04-06T12:03:47;11.73;;;8.70;;
13250;SDS011;6692;50.710;7.180;2023-04-06T12:05:48;10.30;;;7.97;;
13250;SDS011;6692;50.710;7.180;2023-04-06T12:07:49;11.03;;;8.67;;
13250;SDS011;6692;50.710;7.180;2023-04-06T12:09:50;12.13;;;8.83;;
13250;SDS011;6692;50.710;7.180;2023-04-06T12:11:51;12.13;;;9.20;;